Shamrock, Texas
Current Conditions -  °F | °C
As of 5:15 PM on Wednesday 26 Nov 2014 (Local Time) from KHHF Reporting Station
Clear Clear  
Wind Chill: 46°   Ceiling: Unl
Heat Index: 48°   Visibility: 10mi
Dew Point: 21°   Wind: 6mph
Humidity: 34%   Direction: 30°NNE
Pressure: 30.29"   Gusts: NA
Location:  35.21°N, 100.25°W
Report Text: KHHF 262315Z AUTO 03005KT 10SM CLR 09/M06 A3029 RMK AO2 T00911060
Loading
Personal Weather Stations






























Interactive Weather Map New forecast layout! Learn more

10-Day Weather Forecast

Advertisements
Track Severe Weather on mobile